createdAt,value
2019-02-20T00:01:13.797Z,10.33
2019-02-20T00:03:54.887Z,13.07
2019-02-20T00:06:35.946Z,11.87
2019-02-20T00:09:16.509Z,11.33
2019-02-20T00:11:57.293Z,11.57
2019-02-20T00:14:37.914Z,11.43
2019-02-20T00:17:18.511Z,12.30
2019-02-20T00:19:59.163Z,11.30
2019-02-20T00:22:40.638Z,12.03
2019-02-20T00:25:21.957Z,14.60
2019-02-20T00:28:02.462Z,15.50
2019-02-20T00:30:43.353Z,13.80
2019-02-20T00:33:24.198Z,13.20
2019-02-20T00:36:05.112Z,10.40
2019-02-20T00:38:45.846Z,12.60
2019-02-20T00:41:26.652Z,10.73
2019-02-20T00:47:27.439Z,11.90
2019-02-20T00:50:08.075Z,11.43
2019-02-20T00:52:57.627Z,9.80
2019-02-20T00:55:38.554Z,12.13
2019-02-20T00:58:19.420Z,10.23
2019-02-20T01:03:39.023Z,11.90
2019-02-20T01:06:20.296Z,12.50
2019-02-20T01:09:00.983Z,11.60
2019-02-20T01:11:41.997Z,11.77
2019-02-20T01:14:22.410Z,10.87
2019-02-20T01:17:03.069Z,10.20
2019-02-20T01:19:44.179Z,11.00
2019-02-20T01:22:25.073Z,10.83
2019-02-20T01:25:05.839Z,10.17
2019-02-20T01:27:46.839Z,10.40
2019-02-20T01:30:27.661Z,10.90
2019-02-20T01:33:08.889Z,12.73
2019-02-20T01:35:49.666Z,12.60
2019-02-20T01:38:30.567Z,10.93
2019-02-20T01:41:11.243Z,11.17
2019-02-20T01:43:52.220Z,11.00
2019-02-20T01:46:33.123Z,11.53
2019-02-20T01:49:13.881Z,10.33
2019-02-20T01:51:54.637Z,9.37
2019-02-20T01:54:35.546Z,11.97
2019-02-20T01:57:16.195Z,10.47
2019-02-20T01:59:56.713Z,9.93
2019-02-20T02:02:37.385Z,9.47
2019-02-20T02:05:18.470Z,10.70
2019-02-20T02:07:59.022Z,10.87
2019-02-20T02:10:39.743Z,10.37
2019-02-20T02:13:20.447Z,10.73
2019-02-20T02:16:01.131Z,12.10
2019-02-20T02:18:41.997Z,11.20
2019-02-20T02:21:23.021Z,11.47
2019-02-20T02:24:03.659Z,11.33
2019-02-20T02:26:44.825Z,11.33
2019-02-20T02:29:25.322Z,13.83
2019-02-20T02:32:06.270Z,12.53
2019-02-20T02:34:46.984Z,9.60
2019-02-20T02:37:28.015Z,11.10
2019-02-20T02:40:08.738Z,11.13
2019-02-20T02:42:49.537Z,11.90
2019-02-20T02:45:30.386Z,11.63
2019-02-20T02:48:11.375Z,13.77
2019-02-20T02:50:52.021Z,13.63
2019-02-20T02:53:32.377Z,12.53
2019-02-20T02:56:13.525Z,13.47
2019-02-20T02:58:54.171Z,12.27
2019-02-20T03:04:39.308Z,14.13
2019-02-20T03:07:20.032Z,10.53
2019-02-20T03:10:00.943Z,12.10
2019-02-20T03:12:41.740Z,13.57
2019-02-20T03:15:22.428Z,13.83
2019-02-20T03:18:03.419Z,13.80
2019-02-20T03:20:44.260Z,14.33
2019-02-20T03:23:24.867Z,12.50
2019-02-20T03:26:05.879Z,11.30
2019-02-20T03:28:46.623Z,13.37
2019-02-20T03:31:27.448Z,12.03
2019-02-20T03:34:09.245Z,13.40
2019-02-20T03:36:50.501Z,12.33
2019-02-20T03:39:31.233Z,10.73
2019-02-20T03:42:11.976Z,13.23
2019-02-20T03:44:52.954Z,12.10
2019-02-20T03:47:33.607Z,14.27
2019-02-20T03:50:13.204Z,15.30
2019-02-20T03:52:54.198Z,14.83
2019-02-20T03:55:34.608Z,13.33
2019-02-20T03:58:15.943Z,12.23
2019-02-20T04:00:56.394Z,13.73
2019-02-20T04:03:38.453Z,16.30
2019-02-20T04:06:19.444Z,14.03
2019-02-20T04:08:59.915Z,16.27
2019-02-20T04:11:40.600Z,15.97
2019-02-20T04:17:17.708Z,15.20
2019-02-20T04:19:57.281Z,17.90
2019-02-20T04:22:38.563Z,13.60
2019-02-20T04:25:18.314Z,16.60
2019-02-20T04:27:59.173Z,15.50
2019-02-20T04:30:39.530Z,13.73
2019-02-20T04:33:20.155Z,12.57
2019-02-20T04:36:01.043Z,12.67
2019-02-20T04:38:41.469Z,12.40
2019-02-20T04:41:21.017Z,13.70
2019-02-20T04:44:01.965Z,12.70
2019-02-20T04:46:42.512Z,13.17
2019-02-20T04:49:23.332Z,15.17
2019-02-20T04:52:02.996Z,15.20
2019-02-20T04:54:44.021Z,12.63
2019-02-20T04:57:24.800Z,11.20
2019-02-20T05:00:05.245Z,13.07
2019-02-20T05:02:46.300Z,12.00
2019-02-20T05:05:26.919Z,10.33
2019-02-20T05:08:07.610Z,13.07
2019-02-20T05:10:48.639Z,12.80
2019-02-20T05:13:29.895Z,14.30
2019-02-20T05:16:10.399Z,15.13
2019-02-20T05:18:51.539Z,10.73
2019-02-20T05:21:31.919Z,12.13
2019-02-20T05:24:23.525Z,11.77
2019-02-20T05:26:55.252Z,21.53
2019-02-20T05:29:36.115Z,16.57
2019-02-20T05:32:16.846Z,14.67
2019-02-20T05:34:57.303Z,15.57
2019-02-20T05:37:39.653Z,15.60
2019-02-20T05:40:21.040Z,13.03
2019-02-20T05:43:01.886Z,12.47
2019-02-20T05:45:42.536Z,11.87
2019-02-20T05:48:23.440Z,10.17
2019-02-20T05:51:04.024Z,12.00
2019-02-20T05:53:45.040Z,15.63
2019-02-20T05:56:25.862Z,13.43
2019-02-20T05:59:06.792Z,13.97
2019-02-20T06:01:47.706Z,14.27
2019-02-20T06:04:28.305Z,11.50
2019-02-20T06:07:09.498Z,14.90
2019-02-20T06:09:50.201Z,15.00
2019-02-20T06:12:30.716Z,18.43
2019-02-20T06:15:11.497Z,14.90
2019-02-20T06:17:52.315Z,13.47
2019-02-20T06:20:33.128Z,11.63
2019-02-20T06:23:13.810Z,13.63
2019-02-20T06:25:54.600Z,13.87
2019-02-20T06:28:35.539Z,14.43
2019-02-20T06:31:16.471Z,12.53
2019-02-20T06:33:57.159Z,13.00
2019-02-20T06:36:38.111Z,13.57
2019-02-20T06:39:17.711Z,14.73
2019-02-20T06:41:57.238Z,12.70
2019-02-20T06:47:16.948Z,15.40
2019-02-20T06:49:57.764Z,12.63
2019-02-20T06:52:38.151Z,13.60
2019-02-20T06:55:19.068Z,14.10
2019-02-20T06:57:59.638Z,15.37
2019-02-20T07:00:40.730Z,17.40
2019-02-20T07:03:21.498Z,17.77
2019-02-20T07:06:02.282Z,15.77
2019-02-20T07:08:43.046Z,16.20
2019-02-20T07:11:23.932Z,16.90
2019-02-20T07:14:04.468Z,18.97
2019-02-20T07:16:45.090Z,19.33
2019-02-20T07:19:26.399Z,15.90
2019-02-20T07:22:08.126Z,16.53
2019-02-20T07:24:49.404Z,16.90
2019-02-20T07:27:30.171Z,18.33
2019-02-20T07:30:10.817Z,16.20
2019-02-20T07:32:52.036Z,26.53
2019-02-20T07:35:33.026Z,21.67
2019-02-20T07:38:13.801Z,17.27
2019-02-20T07:40:54.634Z,24.80
2019-02-20T07:43:36.006Z,22.80
2019-02-20T07:46:17.293Z,19.80
2019-02-20T07:48:58.149Z,20.33
2019-02-20T07:51:39.093Z,21.30
2019-02-20T07:54:19.755Z,22.27
2019-02-20T07:57:00.553Z,21.33
2019-02-20T07:59:41.437Z,26.03
2019-02-20T08:02:22.324Z,26.33
2019-02-20T08:05:03.478Z,24.10
2019-02-20T08:07:44.373Z,23.37
2019-02-20T08:10:25.288Z,19.90
2019-02-20T08:13:06.475Z,18.90
2019-02-20T08:15:47.281Z,19.30
2019-02-20T08:18:28.383Z,17.57
2019-02-20T08:21:09.828Z,29.80
2019-02-20T08:23:51.114Z,24.87
2019-02-20T08:26:32.499Z,26.83
2019-02-20T08:29:13.467Z,23.93
2019-02-20T08:31:54.084Z,25.70
2019-02-20T08:34:34.770Z,26.97
2019-02-20T08:37:15.244Z,19.37
2019-02-20T08:39:56.465Z,20.07
2019-02-20T08:45:16.158Z,29.87
2019-02-20T08:47:57.448Z,27.63
2019-02-20T08:50:38.550Z,27.90
2019-02-20T08:53:18.143Z,29.53
2019-02-20T08:55:59.708Z,23.43
2019-02-20T08:58:40.494Z,24.47
2019-02-20T09:01:21.606Z,29.77
2019-02-20T09:04:02.670Z,25.43
2019-02-20T09:06:44.068Z,23.13
2019-02-20T09:09:24.850Z,20.50
2019-02-20T09:12:06.198Z,25.10
2019-02-20T09:14:47.635Z,22.30
2019-02-20T09:17:28.301Z,27.87
2019-02-20T09:20:09.154Z,24.43
2019-02-20T09:22:50.430Z,35.10
2019-02-20T09:25:30.076Z,25.07
2019-02-20T09:28:11.372Z,26.53
2019-02-20T09:30:52.615Z,27.37
2019-02-20T09:33:33.262Z,22.67
2019-02-20T09:36:14.542Z,21.00
2019-02-20T09:38:55.247Z,22.13
2019-02-20T09:41:38.510Z,28.53
2019-02-20T09:44:19.687Z,23.80
2019-02-20T09:47:00.395Z,28.10
2019-02-20T09:49:40.840Z,22.13
2019-02-20T09:55:00.694Z,22.93
2019-02-20T09:57:41.699Z,23.50
2019-02-20T10:00:22.700Z,24.20
2019-02-20T10:03:03.356Z,21.33
2019-02-20T10:05:44.062Z,20.53
2019-02-20T10:08:25.195Z,19.27
2019-02-20T10:11:06.021Z,22.03
2019-02-20T10:13:46.898Z,21.13
2019-02-20T10:16:28.205Z,21.47
2019-02-20T10:19:09.202Z,19.53
2019-02-20T10:21:49.796Z,16.00
2019-02-20T10:24:30.475Z,20.87
2019-02-20T10:27:11.507Z,19.33
2019-02-20T10:29:52.744Z,20.07
2019-02-20T10:32:33.528Z,25.47
2019-02-20T10:35:14.313Z,23.73
2019-02-20T10:37:55.160Z,22.83
2019-02-20T10:40:36.066Z,22.73
2019-02-20T10:43:16.746Z,30.70
2019-02-20T10:45:57.640Z,26.60
2019-02-20T10:51:22.240Z,23.00
2019-02-20T10:54:03.625Z,29.90
2019-02-20T10:56:44.896Z,21.43
2019-02-20T10:59:25.403Z,20.57
2019-02-20T11:02:06.000Z,20.43
2019-02-20T11:07:25.580Z,21.70
2019-02-20T11:10:07.006Z,16.00
2019-02-20T11:12:50.101Z,15.67
2019-02-20T11:15:31.141Z,15.07
2019-02-20T11:18:12.018Z,14.33
2019-02-20T11:20:52.897Z,17.87
2019-02-20T11:23:35.890Z,16.43
2019-02-20T11:26:18.541Z,16.67
2019-02-20T11:28:59.448Z,16.70
2019-02-20T11:31:39.131Z,15.27
2019-02-20T11:34:20.333Z,19.67
2019-02-20T11:37:01.542Z,16.77
2019-02-20T11:39:42.749Z,13.47
2019-02-20T11:42:23.695Z,17.27
2019-02-20T11:45:05.638Z,15.90
2019-02-20T11:47:46.347Z,13.60
2019-02-20T11:50:27.807Z,12.83
2019-02-20T11:53:09.353Z,12.53
2019-02-20T11:55:50.769Z,12.73
2019-02-20T11:58:32.066Z,12.97
2019-02-20T12:03:57.761Z,10.60
2019-02-20T12:06:39.137Z,11.23
2019-02-20T12:12:24.917Z,9.97
2019-02-20T12:15:06.175Z,10.03
2019-02-20T12:17:47.594Z,9.03
2019-02-20T12:23:36.674Z,7.03
2019-02-20T12:26:14.266Z,6.00
2019-02-20T12:28:55.772Z,4.73
2019-02-20T12:31:36.760Z,5.37
2019-02-20T12:34:17.361Z,5.33
2019-02-20T12:36:58.351Z,4.40
2019-02-20T12:39:39.183Z,4.67
2019-02-20T12:42:19.606Z,4.80
2019-02-20T12:45:00.438Z,4.90
2019-02-20T12:47:41.235Z,5.20
2019-02-20T12:50:22.362Z,5.10
2019-02-20T12:53:03.391Z,5.10
2019-02-20T12:55:44.817Z,5.97
2019-02-20T12:58:25.917Z,4.70
2019-02-20T13:01:06.905Z,5.83
2019-02-20T13:03:47.710Z,5.53
2019-02-20T13:06:29.858Z,4.90
2019-02-20T13:09:13.300Z,4.33
2019-02-20T13:11:54.532Z,4.40
2019-02-20T13:14:35.739Z,5.90
2019-02-20T13:17:16.797Z,5.37
2019-02-20T13:19:57.540Z,4.90
2019-02-20T13:22:38.105Z,4.43
2019-02-20T13:25:20.966Z,4.70
2019-02-20T13:28:02.252Z,4.40
2019-02-20T13:30:42.755Z,5.27
2019-02-20T13:33:23.659Z,5.17
2019-02-20T13:36:04.458Z,4.97
2019-02-20T13:38:45.135Z,5.30
2019-02-20T13:41:26.008Z,4.80
2019-02-20T13:44:07.326Z,4.33
2019-02-20T13:46:47.037Z,4.27
2019-02-20T13:49:28.219Z,4.27
2019-02-20T13:52:07.954Z,4.70
2019-02-20T13:54:47.528Z,4.10
2019-02-20T13:57:28.988Z,4.57
2019-02-20T14:00:10.182Z,3.90
2019-02-20T14:02:49.649Z,3.67
2019-02-20T14:05:31.020Z,3.90
2019-02-20T14:08:11.431Z,4.57
2019-02-20T14:10:51.897Z,4.17
2019-02-20T14:13:32.463Z,4.60
2019-02-20T14:16:14.879Z,4.20
2019-02-20T14:18:55.906Z,4.67
2019-02-20T14:21:36.607Z,4.00
2019-02-20T14:24:17.581Z,4.50
2019-02-20T14:26:58.685Z,3.70
2019-02-20T14:29:39.862Z,4.00
2019-02-20T14:32:20.491Z,3.93
2019-02-20T14:35:00.964Z,4.13
2019-02-20T14:37:42.003Z,4.28
2019-02-20T14:40:22.744Z,4.43
2019-02-20T14:43:03.500Z,4.17
2019-02-20T14:45:44.237Z,4.37
2019-02-20T14:48:25.305Z,3.97
2019-02-20T14:51:06.123Z,3.60
2019-02-20T14:53:46.904Z,4.07
2019-02-20T14:56:27.745Z,4.20
2019-02-20T14:59:08.435Z,3.70
2019-02-20T15:01:49.227Z,3.60
2019-02-20T15:04:30.033Z,3.57
2019-02-20T15:07:11.237Z,3.53
2019-02-20T15:09:54.040Z,3.53
2019-02-20T15:12:34.172Z,3.73
2019-02-20T15:15:15.120Z,4.80
2019-02-20T15:17:56.008Z,3.70
2019-02-20T15:20:36.494Z,4.07
2019-02-20T15:23:16.821Z,3.60
2019-02-20T15:28:42.329Z,5.93
2019-02-20T15:31:31.494Z,5.40
2019-02-20T15:34:06.700Z,5.77
2019-02-20T15:36:47.712Z,5.70
2019-02-20T15:39:28.731Z,6.80
2019-02-20T15:42:08.511Z,7.83
2019-02-20T15:44:49.783Z,5.60
2019-02-20T15:47:30.280Z,5.93
2019-02-20T15:50:10.854Z,7.60
2019-02-20T15:55:30.479Z,6.73
2019-02-20T15:58:11.352Z,6.10
2019-02-20T16:00:52.144Z,4.90
2019-02-20T16:03:33.083Z,6.53
2019-02-20T16:06:13.731Z,5.20
2019-02-20T16:08:54.534Z,4.50
2019-02-20T16:11:35.513Z,5.43
2019-02-20T16:14:16.461Z,5.10
2019-02-20T16:16:57.132Z,4.20
2019-02-20T16:19:27.247Z,3.93
2019-02-20T16:22:15.750Z,4.33
2019-02-20T16:25:03.996Z,3.93
2019-02-20T16:27:47.518Z,3.97
2019-02-20T16:30:27.867Z,3.87
2019-02-20T16:33:09.332Z,3.93
2019-02-20T16:35:50.241Z,3.80
2019-02-20T16:38:31.059Z,3.83
2019-02-20T16:41:11.920Z,4.03
2019-02-20T16:43:56.178Z,4.30
2019-02-20T16:46:36.994Z,3.77
2019-02-20T16:49:17.659Z,4.23
2019-02-20T16:51:58.038Z,4.43
2019-02-20T16:54:38.466Z,4.60
2019-02-20T16:57:19.442Z,4.20
2019-02-20T17:00:00.387Z,4.00
2019-02-20T17:02:41.266Z,3.80
2019-02-20T17:05:22.284Z,3.97
2019-02-20T17:08:03.025Z,3.77
2019-02-20T17:10:43.875Z,3.33
2019-02-20T17:13:25.450Z,3.30
2019-02-20T17:16:06.619Z,3.00
2019-02-20T17:18:47.264Z,3.40
2019-02-20T17:21:28.228Z,3.47
2019-02-20T17:24:09.817Z,4.10
2019-02-20T17:26:50.227Z,4.50
2019-02-20T17:29:24.086Z,5.30
2019-02-20T17:32:12.328Z,3.77
2019-02-20T17:35:00.491Z,4.10
2019-02-20T17:37:41.119Z,4.30
2019-02-20T17:40:21.963Z,4.23
2019-02-20T17:43:02.918Z,4.17
2019-02-20T17:45:43.762Z,4.10
2019-02-20T17:48:24.224Z,4.37
2019-02-20T17:51:05.511Z,4.57
2019-02-20T17:53:46.799Z,4.83
2019-02-20T17:56:27.790Z,4.20
2019-02-20T17:59:09.085Z,4.37
2019-02-20T18:01:50.232Z,4.90
2019-02-20T18:04:31.226Z,5.73
2019-02-20T18:07:12.586Z,4.97
2019-02-20T18:09:53.431Z,4.97
2019-02-20T18:12:34.201Z,5.20
2019-02-20T18:15:15.592Z,5.40
2019-02-20T18:17:56.041Z,5.63
2019-02-20T18:20:36.999Z,6.03
2019-02-20T18:26:03.124Z,7.90
2019-02-20T18:28:44.286Z,8.17
2019-02-20T18:31:25.394Z,9.17
2019-02-20T18:34:07.037Z,9.50
2019-02-20T18:36:46.561Z,8.90
2019-02-20T18:39:27.908Z,7.70
2019-02-20T18:42:08.843Z,6.70
2019-02-20T18:44:49.321Z,5.00
2019-02-20T18:47:30.343Z,3.93
2019-02-20T18:50:13.812Z,5.17
2019-02-20T18:52:54.544Z,5.10
2019-02-20T18:55:23.797Z,5.10
2019-02-20T18:58:11.956Z,4.90
2019-02-20T19:00:52.853Z,4.67
2019-02-20T19:03:21.947Z,4.53
2019-02-20T19:06:10.177Z,4.53
2019-02-20T19:11:56.266Z,3.43
2019-02-20T19:14:37.202Z,3.77
2019-02-20T19:20:02.310Z,4.50
2019-02-20T19:22:43.099Z,4.30
2019-02-20T19:25:23.669Z,4.20
2019-02-20T19:28:04.804Z,3.83
2019-02-20T19:30:45.894Z,3.70
2019-02-20T19:33:27.522Z,4.50
2019-02-20T19:36:08.394Z,4.43
2019-02-20T19:38:50.137Z,4.70
2019-02-20T19:41:30.503Z,5.43
2019-02-20T19:44:11.720Z,5.77
2019-02-20T19:46:52.707Z,6.10
2019-02-20T19:49:33.872Z,6.77
2019-02-20T19:52:14.790Z,7.77
2019-02-20T19:54:56.006Z,7.83
2019-02-20T19:57:35.683Z,7.60
2019-02-20T20:00:16.915Z,6.20
2019-02-20T20:02:58.156Z,6.47
2019-02-20T20:05:38.603Z,6.87
2019-02-20T20:08:19.152Z,6.30
2019-02-20T20:11:00.309Z,5.87
2019-02-20T20:13:41.414Z,5.77
2019-02-20T20:16:22.191Z,5.30
2019-02-20T20:21:41.954Z,5.20
2019-02-20T20:24:23.447Z,5.50
2019-02-20T20:27:04.804Z,6.50
2019-02-20T20:29:46.310Z,7.70
2019-02-20T20:32:26.884Z,7.57
2019-02-20T20:35:08.146Z,6.57
2019-02-20T20:37:48.639Z,7.83
2019-02-20T20:40:30.276Z,5.73
2019-02-20T20:43:31.063Z,5.80
2019-02-20T20:46:11.847Z,6.03
2019-02-20T20:48:52.575Z,6.87
2019-02-20T20:51:33.963Z,7.80
2019-02-20T20:54:14.841Z,7.60
2019-02-20T20:56:57.869Z,6.03
2019-02-20T20:59:38.701Z,6.00
2019-02-20T21:02:19.393Z,5.40
2019-02-20T21:07:38.784Z,6.03
2019-02-20T21:10:19.534Z,5.57
2019-02-20T21:13:00.137Z,5.70
2019-02-20T21:15:41.193Z,6.50
2019-02-20T21:18:21.955Z,7.10
2019-02-20T21:21:03.237Z,7.07
2019-02-20T21:23:44.540Z,7.03
2019-02-20T21:26:25.357Z,6.93
2019-02-20T21:29:05.886Z,6.67
2019-02-20T21:31:47.238Z,6.37
2019-02-20T21:34:54.534Z,6.17
2019-02-20T21:37:35.993Z,5.70
2019-02-20T21:40:16.786Z,5.00
2019-02-20T21:42:57.601Z,5.63
2019-02-20T21:45:38.427Z,5.83
2019-02-20T21:48:19.588Z,5.60
2019-02-20T21:51:00.242Z,5.33
2019-02-20T21:53:41.240Z,6.37
2019-02-20T21:56:21.743Z,6.27
2019-02-20T21:59:03.070Z,5.80
2019-02-20T22:01:43.824Z,6.37
2019-02-20T22:04:25.078Z,6.03
2019-02-20T22:07:05.838Z,6.83
2019-02-20T22:09:57.360Z,6.77
2019-02-20T22:12:29.578Z,6.27
2019-02-20T22:15:10.855Z,6.60
2019-02-20T22:17:51.619Z,7.53
2019-02-20T22:20:32.128Z,6.53
2019-02-20T22:23:12.497Z,6.87
2019-02-20T22:25:53.579Z,6.27
2019-02-20T22:28:34.740Z,6.33
2019-02-20T22:31:16.020Z,6.50
2019-02-20T22:33:56.847Z,6.80
2019-02-20T22:36:37.519Z,6.80
2019-02-20T22:39:18.349Z,6.80
2019-02-20T22:42:25.618Z,6.50
2019-02-20T22:45:07.966Z,7.00
2019-02-20T22:47:48.724Z,5.97
2019-02-20T22:50:29.593Z,6.43
2019-02-20T22:53:10.551Z,6.27
2019-02-20T22:55:51.966Z,6.40
2019-02-20T22:58:32.659Z,7.40
2019-02-20T23:01:13.611Z,6.70
2019-02-20T23:03:54.568Z,6.83
2019-02-20T23:06:35.451Z,7.13
2019-02-20T23:09:16.583Z,7.37
2019-02-20T23:11:57.155Z,7.10
2019-02-20T23:14:37.868Z,6.80
2019-02-20T23:17:18.442Z,7.00
2019-02-20T23:19:58.974Z,7.23
2019-02-20T23:22:39.603Z,7.40
2019-02-20T23:25:20.255Z,6.30
2019-02-20T23:28:00.905Z,7.03
2019-02-20T23:33:20.704Z,6.23
2019-02-20T23:36:01.471Z,6.80
2019-02-20T23:38:42.147Z,6.77
2019-02-20T23:41:22.835Z,5.80
2019-02-20T23:44:03.683Z,6.50
2019-02-20T23:46:44.147Z,6.93
2019-02-20T23:49:25.117Z,6.00
2019-02-20T23:52:05.676Z,6.03
2019-02-20T23:54:46.429Z,5.33
2019-02-20T23:57:27.242Z,6.90
